createdAt,value
2019-06-27T00:01:34.634Z,99.90
2019-06-27T00:06:28.170Z,99.90
2019-06-27T00:11:21.614Z,99.90
2019-06-27T00:16:15.221Z,99.90
2019-06-27T00:21:10.623Z,99.90
2019-06-27T00:26:04.186Z,99.90
2019-06-27T00:30:57.774Z,99.90
2019-06-27T00:35:51.320Z,99.90
2019-06-27T00:40:44.842Z,99.90
2019-06-27T00:45:38.429Z,99.90
2019-06-27T00:50:31.885Z,99.90
2019-06-27T00:55:25.379Z,99.90
2019-06-27T01:00:19.556Z,99.90
2019-06-27T01:05:13.430Z,99.90
2019-06-27T01:10:10.192Z,99.90
2019-06-27T01:15:04.015Z,99.90
2019-06-27T01:19:57.795Z,99.90
2019-06-27T01:24:51.478Z,99.90
2019-06-27T01:29:44.960Z,99.90
2019-06-27T01:34:38.409Z,99.90
2019-06-27T01:39:31.819Z,99.90
2019-06-27T01:44:48.910Z,99.90
2019-06-27T01:49:42.497Z,99.90
2019-06-27T01:54:36.039Z,99.90
2019-06-27T01:59:29.561Z,99.90
2019-06-27T02:04:22.895Z,99.90
2019-06-27T02:09:16.364Z,99.90
2019-06-27T02:14:09.865Z,99.90
2019-06-27T02:19:03.439Z,99.90
2019-06-27T02:23:58.075Z,99.90
2019-06-27T02:28:51.690Z,99.90
2019-06-27T02:33:45.195Z,99.90
2019-06-27T02:38:38.782Z,99.90
2019-06-27T02:43:32.415Z,99.90
2019-06-27T02:48:25.891Z,99.90
2019-06-27T02:53:19.437Z,99.90
2019-06-27T02:58:30.047Z,99.90
2019-06-27T03:03:08.124Z,99.90
2019-06-27T03:08:01.586Z,99.90
2019-06-27T03:12:55.382Z,99.90
2019-06-27T03:17:49.006Z,99.90
2019-06-27T03:22:42.532Z,99.90
2019-06-27T03:27:36.046Z,99.90
2019-06-27T03:32:29.601Z,99.90
2019-06-27T03:37:23.067Z,99.90
2019-06-27T03:42:16.566Z,99.90
2019-06-27T03:47:09.923Z,99.90
2019-06-27T03:52:03.492Z,99.90
2019-06-27T03:56:57.897Z,99.90
2019-06-27T04:01:54.713Z,99.90
2019-06-27T04:06:48.285Z,99.90
2019-06-27T04:11:41.856Z,99.90
2019-06-27T04:16:37.712Z,99.90
2019-06-27T04:21:31.146Z,99.90
2019-06-27T04:26:25.617Z,99.90
2019-06-27T04:31:19.132Z,99.90
2019-06-27T04:36:12.594Z,99.90
2019-06-27T04:41:07.082Z,99.90
2019-06-27T04:46:00.702Z,99.90
2019-06-27T04:50:55.325Z,99.90
2019-06-27T04:55:48.789Z,99.90
2019-06-27T05:00:42.269Z,99.90
2019-06-27T05:05:35.678Z,99.90
2019-06-27T05:10:29.142Z,99.90
2019-06-27T05:15:22.739Z,99.90
2019-06-27T05:20:16.379Z,99.90
2019-06-27T05:25:09.886Z,99.90
2019-06-27T05:30:09.253Z,99.90
2019-06-27T05:34:59.097Z,99.90
2019-06-27T05:39:54.427Z,99.90
2019-06-27T05:44:47.873Z,99.90
2019-06-27T05:49:41.468Z,99.90
2019-06-27T05:54:34.883Z,99.90
2019-06-27T05:59:28.345Z,99.90
2019-06-27T06:04:24.171Z,99.90
2019-06-27T06:09:18.622Z,99.90
2019-06-27T06:14:12.243Z,99.90
2019-06-27T06:19:05.625Z,99.90
2019-06-27T06:23:59.120Z,99.90
2019-06-27T06:28:52.798Z,99.90
2019-06-27T06:33:46.316Z,99.00
2019-06-27T06:38:39.958Z,97.00
2019-06-27T06:43:33.835Z,97.00
2019-06-27T06:48:27.478Z,95.80
2019-06-27T06:53:21.224Z,95.60
2019-06-27T06:58:17.768Z,93.40
2019-06-27T07:03:11.285Z,92.10
2019-06-27T07:08:04.822Z,90.80
2019-06-27T07:12:58.653Z,91.50
2019-06-27T07:17:52.295Z,90.70
2019-06-27T07:22:46.129Z,90.20
2019-06-27T07:27:41.552Z,84.20
2019-06-27T07:32:35.343Z,84.80
2019-06-27T07:37:29.012Z,82.90
2019-06-27T07:42:22.792Z,81.20
2019-06-27T07:47:16.177Z,79.20
2019-06-27T07:52:10.588Z,80.10
2019-06-27T07:57:04.264Z,80.00
2019-06-27T08:01:58.271Z,78.30
2019-06-27T08:06:52.157Z,77.30
2019-06-27T08:11:46.240Z,75.60
2019-06-27T08:16:39.919Z,75.70
2019-06-27T08:21:33.918Z,74.00
2019-06-27T08:26:28.492Z,72.00
2019-06-27T08:31:22.284Z,69.00
2019-06-27T08:36:16.329Z,67.90
2019-06-27T08:41:13.719Z,66.80
2019-06-27T08:46:05.663Z,66.40
2019-06-27T08:51:00.408Z,65.80
2019-06-27T08:55:53.880Z,64.30
2019-06-27T09:00:47.085Z,64.00
2019-06-27T09:05:40.559Z,63.40
2019-06-27T09:10:34.086Z,63.30
2019-06-27T09:15:27.903Z,62.50
2019-06-27T09:20:23.703Z,62.40
2019-06-27T09:25:17.049Z,61.70
2019-06-27T09:30:11.777Z,61.30
2019-06-27T09:35:05.607Z,60.90
2019-06-27T09:39:59.004Z,60.70
2019-06-27T09:44:52.454Z,60.80
2019-06-27T09:49:46.020Z,60.40
2019-06-27T09:54:39.524Z,58.50
2019-06-27T09:59:32.887Z,59.60
2019-06-27T10:04:27.594Z,56.80
2019-06-27T10:09:21.123Z,57.60
2019-06-27T10:14:14.480Z,58.30
2019-06-27T10:19:13.243Z,58.90
2019-06-27T10:24:07.381Z,58.50
2019-06-27T10:29:01.318Z,60.00
2019-06-27T10:33:55.345Z,60.70
2019-06-27T10:38:49.273Z,62.70
2019-06-27T10:43:43.260Z,63.20
2019-06-27T10:48:37.239Z,63.10
2019-06-27T10:53:31.284Z,62.80
2019-06-27T10:58:24.688Z,62.40
2019-06-27T11:03:18.183Z,61.70
2019-06-27T11:08:11.769Z,61.60
2019-06-27T11:13:05.340Z,61.30
2019-06-27T11:17:58.618Z,62.70
2019-06-27T11:22:52.636Z,61.30
2019-06-27T11:27:46.281Z,60.40
2019-06-27T11:32:39.990Z,61.20
2019-06-27T11:37:33.727Z,63.40
2019-06-27T11:42:29.788Z,64.00
2019-06-27T11:47:22.369Z,62.20
2019-06-27T11:52:15.955Z,61.50
2019-06-27T11:57:09.442Z,62.90
2019-06-27T12:02:02.941Z,60.90
2019-06-27T12:06:57.097Z,59.10
2019-06-27T12:11:51.871Z,59.40
2019-06-27T12:16:45.223Z,58.10
2019-06-27T12:21:38.734Z,57.70
2019-06-27T12:26:33.227Z,57.90
2019-06-27T12:31:26.749Z,57.80
2019-06-27T12:36:20.223Z,57.50
2019-06-27T12:41:13.589Z,56.20
2019-06-27T12:46:06.881Z,56.30
2019-06-27T12:51:00.492Z,55.10
2019-06-27T12:55:54.076Z,55.20
2019-06-27T13:00:49.239Z,54.90
2019-06-27T13:05:43.057Z,53.40
2019-06-27T13:10:36.854Z,54.10
2019-06-27T13:15:30.159Z,55.10
2019-06-27T13:20:23.424Z,53.80
2019-06-27T13:25:16.980Z,56.20
2019-06-27T13:30:10.617Z,57.20
2019-06-27T13:35:04.450Z,58.80
2019-06-27T13:39:58.375Z,58.40
2019-06-27T13:44:52.055Z,58.30
2019-06-27T13:49:46.372Z,57.60
2019-06-27T13:54:41.531Z,56.30
2019-06-27T13:59:35.469Z,54.10
2019-06-27T14:04:28.943Z,52.80
2019-06-27T14:09:23.868Z,53.90
2019-06-27T14:14:17.497Z,54.40
2019-06-27T14:19:10.995Z,52.40
2019-06-27T14:24:04.658Z,54.10
2019-06-27T14:28:57.801Z,57.00
2019-06-27T14:33:51.343Z,57.00
2019-06-27T14:38:44.778Z,58.10
2019-06-27T14:43:38.532Z,56.10
2019-06-27T14:48:31.996Z,57.60
2019-06-27T14:53:25.359Z,58.30
2019-06-27T14:58:19.206Z,57.90
2019-06-27T15:03:14.367Z,55.90
2019-06-27T15:08:07.965Z,55.00
2019-06-27T15:13:01.136Z,56.10
2019-06-27T15:17:54.597Z,56.10
2019-06-27T15:22:48.446Z,54.00
2019-06-27T15:27:42.185Z,52.30
2019-06-27T15:32:35.755Z,52.70
2019-06-27T15:37:30.080Z,56.00
2019-06-27T15:42:25.116Z,57.20
2019-06-27T15:47:18.797Z,57.30
2019-06-27T15:52:12.301Z,56.90
2019-06-27T15:57:05.924Z,56.80
2019-06-27T16:01:59.663Z,57.40
2019-06-27T16:06:53.092Z,57.60
2019-06-27T16:11:46.695Z,56.90
2019-06-27T16:16:40.258Z,57.80
2019-06-27T16:21:33.753Z,58.30
2019-06-27T16:26:27.245Z,58.30
2019-06-27T16:31:20.738Z,58.60
2019-06-27T16:36:24.809Z,58.70
2019-06-27T16:41:10.339Z,59.00
2019-06-27T16:46:04.463Z,59.00
2019-06-27T16:50:58.100Z,60.90
2019-06-27T16:55:51.874Z,60.10
2019-06-27T17:00:45.395Z,61.90
2019-06-27T17:05:38.903Z,62.40
2019-06-27T17:10:32.445Z,63.70
2019-06-27T17:15:25.988Z,64.40
2019-06-27T17:20:19.292Z,64.50
2019-06-27T17:25:24.103Z,64.90
2019-06-27T17:30:25.146Z,65.40
2019-06-27T17:35:22.113Z,65.70
2019-06-27T17:40:26.280Z,65.60
2019-06-27T17:45:28.004Z,65.90
2019-06-27T17:50:30.058Z,66.70
2019-06-27T17:55:30.835Z,67.50
2019-06-27T18:00:31.642Z,68.00
2019-06-27T18:05:25.839Z,68.40
2019-06-27T18:10:19.829Z,68.60
2019-06-27T18:15:14.486Z,69.10
2019-06-27T18:20:08.143Z,69.80
2019-06-27T18:25:01.713Z,70.80
2019-06-27T18:29:57.141Z,71.30
2019-06-27T18:34:50.468Z,71.80
2019-06-27T18:39:43.887Z,73.20
2019-06-27T18:44:38.906Z,73.80
2019-06-27T18:49:32.268Z,74.60
2019-06-27T18:54:25.764Z,74.60
2019-06-27T18:59:19.565Z,75.20
2019-06-27T19:04:14.604Z,76.10
2019-06-27T19:09:08.234Z,76.90
2019-06-27T19:14:01.989Z,77.60
2019-06-27T19:18:58.604Z,78.60
2019-06-27T19:24:12.275Z,79.20
2019-06-27T19:29:06.005Z,80.10
2019-06-27T19:34:00.505Z,82.50
2019-06-27T19:38:53.951Z,83.00
2019-06-27T19:43:47.343Z,85.60
2019-06-27T19:48:41.065Z,88.10
2019-06-27T19:53:34.852Z,90.70
2019-06-27T19:58:28.336Z,92.60
2019-06-27T20:03:23.116Z,96.50
2019-06-27T20:08:19.557Z,96.70
2019-06-27T20:13:12.051Z,99.20
2019-06-27T20:18:05.615Z,99.90
2019-06-27T20:22:59.111Z,99.90
2019-06-27T20:27:52.712Z,99.90
2019-06-27T20:32:46.226Z,99.90
2019-06-27T20:37:40.011Z,99.90
2019-06-27T20:42:33.554Z,99.90
2019-06-27T20:47:26.929Z,99.90
2019-06-27T20:52:20.599Z,99.90
2019-06-27T20:57:14.310Z,99.90
2019-06-27T21:02:07.747Z,99.90
2019-06-27T21:07:01.133Z,99.90
2019-06-27T21:11:54.346Z,99.90
2019-06-27T21:16:47.680Z,99.90
2019-06-27T21:21:42.155Z,99.90
2019-06-27T21:26:35.861Z,99.90
2019-06-27T21:31:29.607Z,99.90
2019-06-27T21:36:23.161Z,99.90
2019-06-27T21:41:19.150Z,99.90
2019-06-27T21:46:13.148Z,99.90
2019-06-27T21:51:07.918Z,99.90
2019-06-27T21:56:01.444Z,99.90
2019-06-27T22:00:55.410Z,99.90
2019-06-27T22:05:49.046Z,99.90
2019-06-27T22:10:43.017Z,99.90
2019-06-27T22:15:36.624Z,99.90
2019-06-27T22:20:30.078Z,99.90
2019-06-27T22:25:39.185Z,99.90
2019-06-27T22:30:19.440Z,99.90
2019-06-27T22:35:13.209Z,99.90
2019-06-27T22:40:25.619Z,99.90
2019-06-27T22:45:37.147Z,99.90
2019-06-27T22:50:49.605Z,99.90
2019-06-27T22:55:45.181Z,99.90
2019-06-27T23:00:38.775Z,99.90
2019-06-27T23:05:32.075Z,99.90
2019-06-27T23:10:25.577Z,99.90
2019-06-27T23:15:19.114Z,99.90
2019-06-27T23:20:13.000Z,99.90
2019-06-27T23:25:08.249Z,99.90
2019-06-27T23:30:02.000Z,99.90
2019-06-27T23:34:55.486Z,99.90
2019-06-27T23:39:49.318Z,99.90
2019-06-27T23:44:42.969Z,99.90
2019-06-27T23:49:39.961Z,99.90
2019-06-27T23:54:33.626Z,99.90
2019-06-27T23:59:27.601Z,99.90
